sensor_id;sensor_type;location;lat;lon;timestamp;P1;durP1;ratioP1;P2;durP2;ratioP2
39066;SDS011;24821;51.988;6.020;2023-03-13T00:00:16;12.27;;;3.90;;
39066;SDS011;24821;51.988;6.020;2023-03-13T00:02:43;6.57;;;3.25;;
39066;SDS011;24821;51.988;6.020;2023-03-13T00:05:09;14.48;;;3.72;;
39066;SDS011;24821;51.988;6.020;2023-03-13T00:07:35;10.73;;;3.58;;
39066;SDS011;24821;51.988;6.020;2023-03-13T00:10:01;6.93;;;3.90;;
39066;SDS011;24821;51.988;6.020;2023-03-13T00:12:27;3.85;;;2.78;;
39066;SDS011;24821;51.988;6.020;2023-03-13T00:14:52;17.10;;;4.88;;
39066;SDS011;24821;51.988;6.020;2023-03-13T00:17:18;9.10;;;3.83;;
39066;SDS011;24821;51.988;6.020;2023-03-13T00:19:43;14.32;;;4.78;;
39066;SDS011;24821;51.988;6.020;2023-03-13T00:22:09;18.63;;;5.38;;
39066;SDS011;24821;51.988;6.020;2023-03-13T00:24:34;12.13;;;4.78;;
39066;SDS011;24821;51.988;6.020;2023-03-13T00:27:00;11.63;;;4.80;;
39066;SDS011;24821;51.988;6.020;2023-03-13T00:29:27;7.30;;;3.63;;
39066;SDS011;24821;51.988;6.020;2023-03-13T00:31:54;6.40;;;3.75;;
39066;SDS011;24821;51.988;6.020;2023-03-13T00:34:19;6.85;;;3.75;;
39066;SDS011;24821;51.988;6.020;2023-03-13T00:36:45;11.18;;;4.15;;
39066;SDS011;24821;51.988;6.020;2023-03-13T00:39:10;11.23;;;3.75;;
39066;SDS011;24821;51.988;6.020;2023-03-13T00:41:36;12.15;;;4.07;;
39066;SDS011;24821;51.988;6.020;2023-03-13T00:44:02;9.05;;;4.15;;
39066;SDS011;24821;51.988;6.020;2023-03-13T00:46:28;8.35;;;2.85;;
39066;SDS011;24821;51.988;6.020;2023-03-13T00:48:54;14.25;;;4.25;;
39066;SDS011;24821;51.988;6.020;2023-03-13T00:51:21;10.13;;;3.63;;
39066;SDS011;24821;51.988;6.020;2023-03-13T00:53:48;8.88;;;3.78;;
39066;SDS011;24821;51.988;6.020;2023-03-13T00:56:14;7.78;;;3.22;;
39066;SDS011;24821;51.988;6.020;2023-03-13T00:58:42;6.78;;;3.47;;
39066;SDS011;24821;51.988;6.020;2023-03-13T01:01:24;12.02;;;4.07;;
39066;SDS011;24821;51.988;6.020;2023-03-13T01:03:53;20.27;;;4.20;;
39066;SDS011;24821;51.988;6.020;2023-03-13T01:06:24;10.57;;;3.97;;
39066;SDS011;24821;51.988;6.020;2023-03-13T01:08:53;14.43;;;4.38;;
39066;SDS011;24821;51.988;6.020;2023-03-13T01:11:24;6.13;;;3.25;;
39066;SDS011;24821;51.988;6.020;2023-03-13T01:13:55;9.30;;;3.80;;
39066;SDS011;24821;51.988;6.020;2023-03-13T01:16:23;8.70;;;4.03;;
39066;SDS011;24821;51.988;6.020;2023-03-13T01:18:51;15.25;;;5.47;;
39066;SDS011;24821;51.988;6.020;2023-03-13T01:21:19;5.70;;;4.35;;
39066;SDS011;24821;51.988;6.020;2023-03-13T01:23:47;11.75;;;4.65;;
39066;SDS011;24821;51.988;6.020;2023-03-13T01:26:13;6.28;;;4.00;;
39066;SDS011;24821;51.988;6.020;2023-03-13T01:28:39;14.05;;;4.50;;
39066;SDS011;24821;51.988;6.020;2023-03-13T01:31:15;10.30;;;4.30;;
39066;SDS011;24821;51.988;6.020;2023-03-13T01:33:42;12.48;;;4.70;;
39066;SDS011;24821;51.988;6.020;2023-03-13T01:36:09;15.35;;;5.70;;
39066;SDS011;24821;51.988;6.020;2023-03-13T01:38:35;10.68;;;4.28;;
39066;SDS011;24821;51.988;6.020;2023-03-13T01:41:02;9.50;;;5.13;;
39066;SDS011;24821;51.988;6.020;2023-03-13T01:43:32;14.13;;;5.18;;
39066;SDS011;24821;51.988;6.020;2023-03-13T01:46:02;8.65;;;4.32;;
39066;SDS011;24821;51.988;6.020;2023-03-13T01:51:00;9.20;;;4.85;;
39066;SDS011;24821;51.988;6.020;2023-03-13T01:53:30;6.88;;;4.38;;
39066;SDS011;24821;51.988;6.020;2023-03-13T01:55:59;5.45;;;3.95;;
39066;SDS011;24821;51.988;6.020;2023-03-13T01:58:26;4.50;;;3.67;;
39066;SDS011;24821;51.988;6.020;2023-03-13T02:00:54;10.02;;;4.57;;
39066;SDS011;24821;51.988;6.020;2023-03-13T02:03:20;7.30;;;4.00;;
39066;SDS011;24821;51.988;6.020;2023-03-13T02:05:46;7.30;;;3.95;;
39066;SDS011;24821;51.988;6.020;2023-03-13T02:08:18;9.07;;;5.63;;
39066;SDS011;24821;51.988;6.020;2023-03-13T02:10:55;5.05;;;4.00;;
39066;SDS011;24821;51.988;6.020;2023-03-13T02:13:29;6.05;;;4.07;;
39066;SDS011;24821;51.988;6.020;2023-03-13T02:15:55;4.88;;;4.10;;
39066;SDS011;24821;51.988;6.020;2023-03-13T02:18:21;9.00;;;4.30;;
39066;SDS011;24821;51.988;6.020;2023-03-13T02:20:46;13.13;;;4.18;;
39066;SDS011;24821;51.988;6.020;2023-03-13T02:23:33;12.18;;;5.05;;
39066;SDS011;24821;51.988;6.020;2023-03-13T02:26:06;5.22;;;4.32;;
39066;SDS011;24821;51.988;6.020;2023-03-13T02:28:32;10.25;;;4.05;;
39066;SDS011;24821;51.988;6.020;2023-03-13T02:30:59;3.70;;;3.40;;
39066;SDS011;24821;51.988;6.020;2023-03-13T02:33:27;5.10;;;4.60;;
39066;SDS011;24821;51.988;6.020;2023-03-13T02:35:55;5.00;;;4.55;;
39066;SDS011;24821;51.988;6.020;2023-03-13T02:38:23;7.20;;;5.45;;
39066;SDS011;24821;51.988;6.020;2023-03-13T02:40:50;9.10;;;5.50;;
39066;SDS011;24821;51.988;6.020;2023-03-13T02:43:19;5.28;;;4.80;;
39066;SDS011;24821;51.988;6.020;2023-03-13T02:46:02;10.88;;;5.10;;
39066;SDS011;24821;51.988;6.020;2023-03-13T02:48:36;6.78;;;5.25;;
39066;SDS011;24821;51.988;6.020;2023-03-13T02:51:05;5.80;;;5.30;;
39066;SDS011;24821;51.988;6.020;2023-03-13T02:53:35;5.45;;;4.95;;
39066;SDS011;24821;51.988;6.020;2023-03-13T02:56:01;8.07;;;6.00;;
39066;SDS011;24821;51.988;6.020;2023-03-13T02:58:34;6.45;;;5.65;;
39066;SDS011;24821;51.988;6.020;2023-03-13T03:01:02;6.70;;;5.35;;
39066;SDS011;24821;51.988;6.020;2023-03-13T03:03:31;8.73;;;6.22;;
39066;SDS011;24821;51.988;6.020;2023-03-13T03:05:58;6.38;;;5.88;;
39066;SDS011;24821;51.988;6.020;2023-03-13T03:08:24;8.10;;;6.80;;
39066;SDS011;24821;51.988;6.020;2023-03-13T03:10:50;6.88;;;6.28;;
39066;SDS011;24821;51.988;6.020;2023-03-13T03:13:15;7.50;;;6.68;;
39066;SDS011;24821;51.988;6.020;2023-03-13T03:15:41;7.40;;;6.72;;
39066;SDS011;24821;51.988;6.020;2023-03-13T03:18:06;7.70;;;7.00;;
39066;SDS011;24821;51.988;6.020;2023-03-13T03:20:32;8.07;;;7.25;;
39066;SDS011;24821;51.988;6.020;2023-03-13T03:22:57;6.70;;;6.22;;
39066;SDS011;24821;51.988;6.020;2023-03-13T03:25:23;7.15;;;6.45;;
39066;SDS011;24821;51.988;6.020;2023-03-13T03:27:48;8.13;;;7.38;;
39066;SDS011;24821;51.988;6.020;2023-03-13T03:30:14;11.18;;;7.18;;
39066;SDS011;24821;51.988;6.020;2023-03-13T03:32:40;8.18;;;7.57;;
39066;SDS011;24821;51.988;6.020;2023-03-13T03:35:05;9.23;;;8.07;;
39066;SDS011;24821;51.988;6.020;2023-03-13T03:37:31;7.88;;;7.13;;
39066;SDS011;24821;51.988;6.020;2023-03-13T03:39:57;7.82;;;7.20;;
39066;SDS011;24821;51.988;6.020;2023-03-13T03:42:22;11.23;;;8.35;;
39066;SDS011;24821;51.988;6.020;2023-03-13T03:44:48;9.55;;;7.28;;
39066;SDS011;24821;51.988;6.020;2023-03-13T03:47:13;9.27;;;8.38;;
39066;SDS011;24821;51.988;6.020;2023-03-13T03:49:39;15.48;;;7.38;;
39066;SDS011;24821;51.988;6.020;2023-03-13T03:52:04;12.27;;;7.70;;
39066;SDS011;24821;51.988;6.020;2023-03-13T03:54:30;6.97;;;6.47;;
39066;SDS011;24821;51.988;6.020;2023-03-13T03:56:56;7.55;;;6.82;;
39066;SDS011;24821;51.988;6.020;2023-03-13T03:59:21;7.57;;;6.97;;
39066;SDS011;24821;51.988;6.020;2023-03-13T04:01:47;9.02;;;7.63;;
39066;SDS011;24821;51.988;6.020;2023-03-13T04:04:13;8.02;;;6.57;;
39066;SDS011;24821;51.988;6.020;2023-03-13T04:06:38;8.10;;;7.30;;
39066;SDS011;24821;51.988;6.020;2023-03-13T04:09:04;8.20;;;7.30;;
39066;SDS011;24821;51.988;6.020;2023-03-13T04:11:29;6.57;;;6.07;;
39066;SDS011;24821;51.988;6.020;2023-03-13T04:13:55;7.85;;;6.30;;
39066;SDS011;24821;51.988;6.020;2023-03-13T04:16:20;6.40;;;5.80;;
39066;SDS011;24821;51.988;6.020;2023-03-13T04:18:46;7.05;;;6.13;;
39066;SDS011;24821;51.988;6.020;2023-03-13T04:21:12;8.63;;;6.50;;
39066;SDS011;24821;51.988;6.020;2023-03-13T04:23:37;6.57;;;6.07;;
39066;SDS011;24821;51.988;6.020;2023-03-13T04:26:03;7.45;;;6.80;;
39066;SDS011;24821;51.988;6.020;2023-03-13T04:28:28;5.60;;;4.97;;
39066;SDS011;24821;51.988;6.020;2023-03-13T04:30:54;7.43;;;6.32;;
39066;SDS011;24821;51.988;6.020;2023-03-13T04:33:21;8.35;;;6.78;;
39066;SDS011;24821;51.988;6.020;2023-03-13T04:35:51;6.68;;;6.05;;
39066;SDS011;24821;51.988;6.020;2023-03-13T04:38:16;6.30;;;5.80;;
39066;SDS011;24821;51.988;6.020;2023-03-13T04:40:42;6.20;;;5.65;;
39066;SDS011;24821;51.988;6.020;2023-03-13T04:43:07;6.65;;;6.15;;
39066;SDS011;24821;51.988;6.020;2023-03-13T04:45:33;6.68;;;6.22;;
39066;SDS011;24821;51.988;6.020;2023-03-13T04:47:59;7.03;;;6.28;;
39066;SDS011;24821;51.988;6.020;2023-03-13T04:50:24;6.72;;;6.22;;
39066;SDS011;24821;51.988;6.020;2023-03-13T04:52:50;7.18;;;6.50;;
39066;SDS011;24821;51.988;6.020;2023-03-13T04:55:16;6.00;;;5.60;;
39066;SDS011;24821;51.988;6.020;2023-03-13T04:57:41;7.63;;;7.03;;
39066;SDS011;24821;51.988;6.020;2023-03-13T05:00:07;7.38;;;6.88;;
39066;SDS011;24821;51.988;6.020;2023-03-13T05:02:34;8.55;;;6.97;;
39066;SDS011;24821;51.988;6.020;2023-03-13T05:05:00;7.45;;;6.63;;
39066;SDS011;24821;51.988;6.020;2023-03-13T05:07:25;6.30;;;5.88;;
39066;SDS011;24821;51.988;6.020;2023-03-13T05:09:51;8.13;;;7.22;;
39066;SDS011;24821;51.988;6.020;2023-03-13T05:12:16;6.95;;;6.50;;
39066;SDS011;24821;51.988;6.020;2023-03-13T05:14:42;7.57;;;6.97;;
39066;SDS011;24821;51.988;6.020;2023-03-13T05:17:08;9.70;;;6.75;;
39066;SDS011;24821;51.988;6.020;2023-03-13T05:19:34;9.75;;;6.70;;
39066;SDS011;24821;51.988;6.020;2023-03-13T05:22:00;8.63;;;6.68;;
39066;SDS011;24821;51.988;6.020;2023-03-13T05:24:26;8.48;;;7.78;;
39066;SDS011;24821;51.988;6.020;2023-03-13T05:26:51;11.20;;;7.43;;
39066;SDS011;24821;51.988;6.020;2023-03-13T05:29:17;9.95;;;7.85;;
39066;SDS011;24821;51.988;6.020;2023-03-13T05:31:42;8.07;;;7.25;;
39066;SDS011;24821;51.988;6.020;2023-03-13T05:34:08;7.07;;;6.57;;
39066;SDS011;24821;51.988;6.020;2023-03-13T05:36:34;6.50;;;6.07;;
39066;SDS011;24821;51.988;6.020;2023-03-13T05:38:59;7.60;;;6.80;;
39066;SDS011;24821;51.988;6.020;2023-03-13T05:41:25;6.38;;;5.78;;
39066;SDS011;24821;51.988;6.020;2023-03-13T05:43:50;15.40;;;14.35;;
39066;SDS011;24821;51.988;6.020;2023-03-13T05:46:16;7.75;;;6.43;;
39066;SDS011;24821;51.988;6.020;2023-03-13T05:48:41;7.78;;;6.38;;
39066;SDS011;24821;51.988;6.020;2023-03-13T05:51:09;7.03;;;6.18;;
39066;SDS011;24821;51.988;6.020;2023-03-13T05:53:35;8.15;;;6.45;;
39066;SDS011;24821;51.988;6.020;2023-03-13T05:56:00;7.97;;;5.60;;
39066;SDS011;24821;51.988;6.020;2023-03-13T05:58:26;9.65;;;5.78;;
39066;SDS011;24821;51.988;6.020;2023-03-13T06:00:51;4.95;;;4.68;;
39066;SDS011;24821;51.988;6.020;2023-03-13T06:03:17;5.63;;;5.13;;
39066;SDS011;24821;51.988;6.020;2023-03-13T06:05:43;5.97;;;5.10;;
39066;SDS011;24821;51.988;6.020;2023-03-13T06:08:09;5.72;;;4.80;;
39066;SDS011;24821;51.988;6.020;2023-03-13T06:10:35;5.95;;;5.45;;
39066;SDS011;24821;51.988;6.020;2023-03-13T06:13:00;5.35;;;4.63;;
39066;SDS011;24821;51.988;6.020;2023-03-13T06:15:26;5.28;;;4.78;;
39066;SDS011;24821;51.988;6.020;2023-03-13T06:17:51;4.28;;;3.97;;
39066;SDS011;24821;51.988;6.020;2023-03-13T06:20:17;5.97;;;4.93;;
39066;SDS011;24821;51.988;6.020;2023-03-13T06:22:43;4.68;;;4.28;;
39066;SDS011;24821;51.988;6.020;2023-03-13T06:25:08;4.70;;;4.20;;
39066;SDS011;24821;51.988;6.020;2023-03-13T06:27:34;4.20;;;3.83;;
39066;SDS011;24821;51.988;6.020;2023-03-13T06:30:00;4.05;;;3.63;;
39066;SDS011;24821;51.988;6.020;2023-03-13T06:32:26;4.03;;;3.63;;
39066;SDS011;24821;51.988;6.020;2023-03-13T06:34:52;10.60;;;3.80;;
39066;SDS011;24821;51.988;6.020;2023-03-13T06:37:18;7.32;;;3.28;;
39066;SDS011;24821;51.988;6.020;2023-03-13T06:39:43;4.05;;;3.40;;
39066;SDS011;24821;51.988;6.020;2023-03-13T06:42:09;8.65;;;3.47;;
39066;SDS011;24821;51.988;6.020;2023-03-13T06:44:34;4.05;;;3.75;;
39066;SDS011;24821;51.988;6.020;2023-03-13T06:47:00;3.92;;;3.58;;
39066;SDS011;24821;51.988;6.020;2023-03-13T06:49:26;3.88;;;3.58;;
39066;SDS011;24821;51.988;6.020;2023-03-13T06:51:51;4.80;;;3.78;;
39066;SDS011;24821;51.988;6.020;2023-03-13T06:54:17;6.13;;;3.88;;
39066;SDS011;24821;51.988;6.020;2023-03-13T06:56:43;5.90;;;4.28;;
39066;SDS011;24821;51.988;6.020;2023-03-13T06:59:08;4.90;;;3.90;;
39066;SDS011;24821;51.988;6.020;2023-03-13T07:01:34;3.55;;;3.35;;
39066;SDS011;24821;51.988;6.020;2023-03-13T07:03:59;9.20;;;4.13;;
39066;SDS011;24821;51.988;6.020;2023-03-13T07:06:25;5.88;;;3.45;;
39066;SDS011;24821;51.988;6.020;2023-03-13T07:08:51;3.20;;;3.00;;
39066;SDS011;24821;51.988;6.020;2023-03-13T07:11:16;3.80;;;3.40;;
39066;SDS011;24821;51.988;6.020;2023-03-13T07:13:42;3.67;;;3.40;;
39066;SDS011;24821;51.988;6.020;2023-03-13T07:16:09;3.60;;;3.40;;
39066;SDS011;24821;51.988;6.020;2023-03-13T07:18:37;3.70;;;3.00;;
39066;SDS011;24821;51.988;6.020;2023-03-13T07:21:05;3.38;;;3.08;;
39066;SDS011;24821;51.988;6.020;2023-03-13T07:23:32;4.22;;;3.53;;
39066;SDS011;24821;51.988;6.020;2023-03-13T07:26:00;3.33;;;3.13;;
39066;SDS011;24821;51.988;6.020;2023-03-13T07:28:27;3.95;;;3.65;;
39066;SDS011;24821;51.988;6.020;2023-03-13T07:30:54;3.55;;;2.65;;
39066;SDS011;24821;51.988;6.020;2023-03-13T07:33:27;4.55;;;2.90;;
39066;SDS011;24821;51.988;6.020;2023-03-13T07:35:52;2.85;;;2.65;;
39066;SDS011;24821;51.988;6.020;2023-03-13T07:38:18;3.22;;;3.03;;
39066;SDS011;24821;51.988;6.020;2023-03-13T07:40:48;3.15;;;2.70;;
39066;SDS011;24821;51.988;6.020;2023-03-13T07:43:15;2.58;;;2.40;;
39066;SDS011;24821;51.988;6.020;2023-03-13T07:45:56;3.30;;;3.00;;
39066;SDS011;24821;51.988;6.020;2023-03-13T07:48:31;3.08;;;2.25;;
39066;SDS011;24821;51.988;6.020;2023-03-13T07:50:58;2.90;;;2.63;;
39066;SDS011;24821;51.988;6.020;2023-03-13T07:53:24;4.45;;;3.15;;
39066;SDS011;24821;51.988;6.020;2023-03-13T07:55:57;3.35;;;2.60;;
39066;SDS011;24821;51.988;6.020;2023-03-13T07:58:27;4.72;;;4.43;;
39066;SDS011;24821;51.988;6.020;2023-03-13T08:00:54;5.57;;;2.38;;
39066;SDS011;24821;51.988;6.020;2023-03-13T08:03:21;6.15;;;2.75;;
39066;SDS011;24821;51.988;6.020;2023-03-13T08:05:47;6.97;;;3.13;;
39066;SDS011;24821;51.988;6.020;2023-03-13T08:08:21;6.18;;;3.20;;
39066;SDS011;24821;51.988;6.020;2023-03-13T08:10:46;2.00;;;1.88;;
39066;SDS011;24821;51.988;6.020;2023-03-13T08:13:12;6.05;;;3.28;;
39066;SDS011;24821;51.988;6.020;2023-03-13T08:15:37;5.68;;;3.10;;
39066;SDS011;24821;51.988;6.020;2023-03-13T08:18:03;2.20;;;2.10;;
39066;SDS011;24821;51.988;6.020;2023-03-13T08:20:28;3.55;;;2.38;;
39066;SDS011;24821;51.988;6.020;2023-03-13T08:22:54;8.05;;;3.05;;
39066;SDS011;24821;51.988;6.020;2023-03-13T08:25:21;2.78;;;2.58;;
39066;SDS011;24821;51.988;6.020;2023-03-13T08:27:46;3.97;;;2.80;;
39066;SDS011;24821;51.988;6.020;2023-03-13T08:30:12;3.42;;;3.10;;
39066;SDS011;24821;51.988;6.020;2023-03-13T08:32:38;2.63;;;2.50;;
39066;SDS011;24821;51.988;6.020;2023-03-13T08:35:03;6.80;;;2.95;;
39066;SDS011;24821;51.988;6.020;2023-03-13T08:37:29;2.90;;;2.63;;
39066;SDS011;24821;51.988;6.020;2023-03-13T08:39:55;4.97;;;2.47;;
39066;SDS011;24821;51.988;6.020;2023-03-13T08:42:21;7.65;;;6.45;;
39066;SDS011;24821;51.988;6.020;2023-03-13T08:44:47;5.18;;;3.70;;
39066;SDS011;24821;51.988;6.020;2023-03-13T08:47:13;2.47;;;2.28;;
39066;SDS011;24821;51.988;6.020;2023-03-13T08:49:38;2.47;;;2.38;;
39066;SDS011;24821;51.988;6.020;2023-03-13T08:52:04;2.63;;;2.50;;
39066;SDS011;24821;51.988;6.020;2023-03-13T08:54:30;3.40;;;2.45;;
39066;SDS011;24821;51.988;6.020;2023-03-13T08:56:56;2.35;;;1.95;;
39066;SDS011;24821;51.988;6.020;2023-03-13T08:59:23;2.00;;;1.90;;
39066;SDS011;24821;51.988;6.020;2023-03-13T09:01:49;3.55;;;2.08;;
39066;SDS011;24821;51.988;6.020;2023-03-13T09:04:15;2.10;;;1.90;;
39066;SDS011;24821;51.988;6.020;2023-03-13T09:06:40;5.55;;;2.33;;
39066;SDS011;24821;51.988;6.020;2023-03-13T09:09:06;2.47;;;2.20;;
39066;SDS011;24821;51.988;6.020;2023-03-13T09:11:35;1.58;;;1.48;;
39066;SDS011;24821;51.988;6.020;2023-03-13T09:14:01;1.83;;;1.73;;
39066;SDS011;24821;51.988;6.020;2023-03-13T09:16:28;5.93;;;2.05;;
39066;SDS011;24821;51.988;6.020;2023-03-13T09:18:55;1.83;;;1.73;;
39066;SDS011;24821;51.988;6.020;2023-03-13T09:21:25;4.20;;;2.00;;
39066;SDS011;24821;51.988;6.020;2023-03-13T09:23:53;8.88;;;2.65;;
39066;SDS011;24821;51.988;6.020;2023-03-13T09:26:19;2.97;;;2.60;;
39066;SDS011;24821;51.988;6.020;2023-03-13T09:28:45;3.70;;;2.70;;
39066;SDS011;24821;51.988;6.020;2023-03-13T09:31:12;3.67;;;2.40;;
39066;SDS011;24821;51.988;6.020;2023-03-13T09:33:39;2.95;;;2.72;;
39066;SDS011;24821;51.988;6.020;2023-03-13T09:36:06;2.67;;;1.88;;
39066;SDS011;24821;51.988;6.020;2023-03-13T09:38:33;3.03;;;2.03;;
39066;SDS011;24821;51.988;6.020;2023-03-13T09:44:03;2.50;;;2.30;;
39066;SDS011;24821;51.988;6.020;2023-03-13T09:49:13;2.38;;;2.17;;
39066;SDS011;24821;51.988;6.020;2023-03-13T09:51:52;4.03;;;1.98;;
39066;SDS011;24821;51.988;6.020;2023-03-13T09:54:25;4.97;;;4.68;;
39066;SDS011;24821;51.988;6.020;2023-03-13T10:02:54;3.15;;;2.33;;
39066;SDS011;24821;51.988;6.020;2023-03-13T10:05:02;3.22;;;2.55;;
39066;SDS011;24821;51.988;6.020;2023-03-13T10:07:29;2.53;;;2.33;;
39066;SDS011;24821;51.988;6.020;2023-03-13T10:09:54;4.18;;;2.13;;
39066;SDS011;24821;51.988;6.020;2023-03-13T10:12:24;2.08;;;1.98;;
39066;SDS011;24821;51.988;6.020;2023-03-13T10:18:13;2.13;;;2.03;;
39066;SDS011;24821;51.988;6.020;2023-03-13T10:20:46;3.22;;;2.63;;
39066;SDS011;24821;51.988;6.020;2023-03-13T10:26:04;3.55;;;2.22;;
39066;SDS011;24821;51.988;6.020;2023-03-13T10:28:32;4.38;;;2.10;;
39066;SDS011;24821;51.988;6.020;2023-03-13T10:31:06;4.72;;;1.85;;
39066;SDS011;24821;51.988;6.020;2023-03-13T10:33:42;2.38;;;2.28;;
39066;SDS011;24821;51.988;6.020;2023-03-13T10:36:11;2.58;;;2.38;;
39066;SDS011;24821;51.988;6.020;2023-03-13T10:38:45;1.83;;;1.73;;
39066;SDS011;24821;51.988;6.020;2023-03-13T10:41:28;6.47;;;2.10;;
39066;SDS011;24821;51.988;6.020;2023-03-13T10:43:59;2.03;;;1.92;;
39066;SDS011;24821;51.988;6.020;2023-03-13T10:46:31;2.08;;;1.73;;
39066;SDS011;24821;51.988;6.020;2023-03-13T10:48:59;2.55;;;2.35;;
39066;SDS011;24821;51.988;6.020;2023-03-13T10:51:37;2.30;;;2.17;;
39066;SDS011;24821;51.988;6.020;2023-03-13T10:54:13;2.83;;;2.63;;
39066;SDS011;24821;51.988;6.020;2023-03-13T10:56:45;2.30;;;2.08;;
39066;SDS011;24821;51.988;6.020;2023-03-13T10:59:17;3.50;;;1.52;;
39066;SDS011;24821;51.988;6.020;2023-03-13T11:01:46;2.70;;;1.92;;
39066;SDS011;24821;51.988;6.020;2023-03-13T11:07:10;2.22;;;1.70;;
39066;SDS011;24821;51.988;6.020;2023-03-13T11:09:51;2.47;;;2.33;;
39066;SDS011;24821;51.988;6.020;2023-03-13T11:12:22;2.63;;;2.25;;
39066;SDS011;24821;51.988;6.020;2023-03-13T11:14:48;2.70;;;2.60;;
39066;SDS011;24821;51.988;6.020;2023-03-13T11:17:32;1.60;;;1.50;;
39066;SDS011;24821;51.988;6.020;2023-03-13T11:20:04;6.70;;;2.33;;
39066;SDS011;24821;51.988;6.020;2023-03-13T11:25:42;2.20;;;2.10;;
39066;SDS011;24821;51.988;6.020;2023-03-13T11:31:32;2.05;;;1.95;;
39066;SDS011;24821;51.988;6.020;2023-03-13T11:37:13;2.50;;;2.30;;
39066;SDS011;24821;51.988;6.020;2023-03-13T11:40:02;3.53;;;3.33;;
39066;SDS011;24821;51.988;6.020;2023-03-13T12:01:45;14.18;;;7.47;;
39066;SDS011;24821;51.988;6.020;2023-03-13T12:04:33;6.70;;;5.75;;
39066;SDS011;24821;51.988;6.020;2023-03-13T12:07:24;5.40;;;4.97;;
39066;SDS011;24821;51.988;6.020;2023-03-13T12:12:58;7.05;;;6.47;;
39066;SDS011;24821;51.988;6.020;2023-03-13T12:18:08;4.20;;;4.05;;
39066;SDS011;24821;51.988;6.020;2023-03-13T12:20:46;5.43;;;4.88;;
39066;SDS011;24821;51.988;6.020;2023-03-13T12:26:16;4.25;;;4.00;;
39066;SDS011;24821;51.988;6.020;2023-03-13T12:28:56;4.55;;;4.25;;
39066;SDS011;24821;51.988;6.020;2023-03-13T12:31:28;3.90;;;3.80;;
39066;SDS011;24821;51.988;6.020;2023-03-13T12:34:11;4.80;;;4.50;;
39066;SDS011;24821;51.988;6.020;2023-03-13T12:39:51;5.28;;;4.50;;
39066;SDS011;24821;51.988;6.020;2023-03-13T12:45:21;4.13;;;3.85;;
39066;SDS011;24821;51.988;6.020;2023-03-13T12:59:19;4.25;;;4.05;;
39066;SDS011;24821;51.988;6.020;2023-03-13T13:01:53;3.42;;;3.33;;
39066;SDS011;24821;51.988;6.020;2023-03-13T13:04:21;3.95;;;3.75;;
39066;SDS011;24821;51.988;6.020;2023-03-13T13:09:30;3.80;;;3.70;;
39066;SDS011;24821;51.988;6.020;2023-03-13T13:25:49;3.72;;;3.58;;
39066;SDS011;24821;51.988;6.020;2023-03-13T13:30:46;4.70;;;4.40;;
39066;SDS011;24821;51.988;6.020;2023-03-13T13:35:44;5.38;;;4.95;;
39066;SDS011;24821;51.988;6.020;2023-03-13T13:40:59;5.50;;;5.10;;
39066;SDS011;24821;51.988;6.020;2023-03-13T13:43:46;7.00;;;5.00;;
39066;SDS011;24821;51.988;6.020;2023-03-13T13:51:35;2.78;;;2.58;;
39066;SDS011;24821;51.988;6.020;2023-03-13T13:56:38;3.60;;;2.15;;
39066;SDS011;24821;51.988;6.020;2023-03-13T14:01:49;3.90;;;2.45;;
39066;SDS011;24821;51.988;6.020;2023-03-13T14:07:23;3.25;;;3.05;;
39066;SDS011;24821;51.988;6.020;2023-03-13T14:13:18;6.93;;;2.65;;
39066;SDS011;24821;51.988;6.020;2023-03-13T14:15:46;3.80;;;2.78;;
39066;SDS011;24821;51.988;6.020;2023-03-13T14:20:56;3.28;;;3.00;;
39066;SDS011;24821;51.988;6.020;2023-03-13T14:23:44;2.30;;;2.20;;
39066;SDS011;24821;51.988;6.020;2023-03-13T14:26:11;3.67;;;2.40;;
39066;SDS011;24821;51.988;6.020;2023-03-13T14:28:46;2.75;;;2.55;;
39066;SDS011;24821;51.988;6.020;2023-03-13T14:31:20;3.25;;;2.97;;
39066;SDS011;24821;51.988;6.020;2023-03-13T14:33:47;4.40;;;2.92;;
39066;SDS011;24821;51.988;6.020;2023-03-13T14:36:12;3.63;;;3.40;;
39066;SDS011;24821;51.988;6.020;2023-03-13T14:38:38;3.08;;;2.90;;
39066;SDS011;24821;51.988;6.020;2023-03-13T14:41:05;4.88;;;3.10;;
39066;SDS011;24821;51.988;6.020;2023-03-13T14:43:53;2.70;;;2.60;;
39066;SDS011;24821;51.988;6.020;2023-03-13T14:46:28;4.03;;;2.72;;
39066;SDS011;24821;51.988;6.020;2023-03-13T14:48:56;2.83;;;2.67;;
39066;SDS011;24821;51.988;6.020;2023-03-13T14:51:30;3.33;;;2.90;;
39066;SDS011;24821;51.988;6.020;2023-03-13T14:53:57;3.50;;;2.83;;
39066;SDS011;24821;51.988;6.020;2023-03-13T14:56:32;2.30;;;2.20;;
39066;SDS011;24821;51.988;6.020;2023-03-13T14:59:05;8.32;;;2.67;;
39066;SDS011;24821;51.988;6.020;2023-03-13T15:01:32;2.78;;;1.83;;
39066;SDS011;24821;51.988;6.020;2023-03-13T15:03:58;2.38;;;2.17;;
39066;SDS011;24821;51.988;6.020;2023-03-13T15:06:24;7.80;;;2.40;;
39066;SDS011;24821;51.988;6.020;2023-03-13T15:11:34;2.58;;;2.22;;
39066;SDS011;24821;51.988;6.020;2023-03-13T15:14:28;1.80;;;1.70;;
39066;SDS011;24821;51.988;6.020;2023-03-13T15:17:15;4.43;;;2.20;;
39066;SDS011;24821;51.988;6.020;2023-03-13T15:19:48;4.22;;;2.28;;
39066;SDS011;24821;51.988;6.020;2023-03-13T15:22:16;2.30;;;2.10;;
39066;SDS011;24821;51.988;6.020;2023-03-13T15:24:42;1.90;;;1.80;;
39066;SDS011;24821;51.988;6.020;2023-03-13T15:27:17;1.67;;;1.58;;
39066;SDS011;24821;51.988;6.020;2023-03-13T15:29:45;1.63;;;1.52;;
39066;SDS011;24821;51.988;6.020;2023-03-13T15:32:13;5.75;;;2.75;;
39066;SDS011;24821;51.988;6.020;2023-03-13T15:34:46;4.05;;;2.28;;
39066;SDS011;24821;51.988;6.020;2023-03-13T15:37:11;3.08;;;2.72;;
39066;SDS011;24821;51.988;6.020;2023-03-13T15:39:38;2.25;;;2.10;;
39066;SDS011;24821;51.988;6.020;2023-03-13T15:42:03;2.88;;;1.60;;
39066;SDS011;24821;51.988;6.020;2023-03-13T15:44:29;4.50;;;2.35;;
39066;SDS011;24821;51.988;6.020;2023-03-13T15:46:55;3.03;;;2.53;;
39066;SDS011;24821;51.988;6.020;2023-03-13T15:49:20;5.82;;;2.08;;
39066;SDS011;24821;51.988;6.020;2023-03-13T15:51:46;3.47;;;2.50;;
39066;SDS011;24821;51.988;6.020;2023-03-13T15:54:11;2.72;;;2.47;;
39066;SDS011;24821;51.988;6.020;2023-03-13T15:56:37;4.32;;;2.47;;
39066;SDS011;24821;51.988;6.020;2023-03-13T15:59:09;7.40;;;3.13;;
39066;SDS011;24821;51.988;6.020;2023-03-13T16:01:36;3.80;;;3.30;;
39066;SDS011;24821;51.988;6.020;2023-03-13T16:04:02;3.03;;;2.67;;
39066;SDS011;24821;51.988;6.020;2023-03-13T16:06:28;7.10;;;3.10;;
39066;SDS011;24821;51.988;6.020;2023-03-13T16:08:57;8.57;;;4.07;;
39066;SDS011;24821;51.988;6.020;2023-03-13T16:11:26;5.95;;;3.45;;
39066;SDS011;24821;51.988;6.020;2023-03-13T16:13:53;3.22;;;2.95;;
39066;SDS011;24821;51.988;6.020;2023-03-13T16:16:23;2.97;;;2.65;;
39066;SDS011;24821;51.988;6.020;2023-03-13T16:18:52;3.85;;;3.55;;
39066;SDS011;24821;51.988;6.020;2023-03-13T16:21:19;4.90;;;3.20;;
39066;SDS011;24821;51.988;6.020;2023-03-13T16:23:55;4.45;;;2.90;;
39066;SDS011;24821;51.988;6.020;2023-03-13T16:26:25;4.65;;;4.25;;
39066;SDS011;24821;51.988;6.020;2023-03-13T16:28:53;3.47;;;3.22;;
39066;SDS011;24821;51.988;6.020;2023-03-13T16:31:20;7.50;;;3.95;;
39066;SDS011;24821;51.988;6.020;2023-03-13T16:33:47;4.60;;;4.30;;
39066;SDS011;24821;51.988;6.020;2023-03-13T16:36:18;5.85;;;4.72;;
39066;SDS011;24821;51.988;6.020;2023-03-13T16:38:46;6.35;;;4.85;;
39066;SDS011;24821;51.988;6.020;2023-03-13T16:41:14;5.55;;;5.15;;
39066;SDS011;24821;51.988;6.020;2023-03-13T16:43:41;5.78;;;5.47;;
39066;SDS011;24821;51.988;6.020;2023-03-13T16:46:18;9.40;;;6.50;;
39066;SDS011;24821;51.988;6.020;2023-03-13T16:48:45;7.03;;;6.57;;
39066;SDS011;24821;51.988;6.020;2023-03-13T16:51:19;7.78;;;6.95;;
39066;SDS011;24821;51.988;6.020;2023-03-13T16:53:47;8.27;;;7.57;;
39066;SDS011;24821;51.988;6.020;2023-03-13T16:56:18;10.60;;;8.15;;